Wetterstation Vordersexau
Wetterdaten: Woche 09.10.23 - 15.10.23 (KW41)
Datum Zeit Temp. A. Feuchte A. Luftdruck Regen Wind Richtung Taupunkt Windchill Windben
09.10.2023 00:00 13,9 C 79 % 1020,1 hPa 0,0 l/m 0,0 km/h (0 Bft) N 10,3 C 13,9 C 2,5 km/h (1 Bft)
09.10.2023 01:00 13,0 C 82 % 1019,6 hPa 0,0 l/m 0,0 km/h (0 Bft) N 10,0 C 13,0 C 0,0 km/h (0 Bft)
09.10.2023 02:00 12,5 C 82 % 1019,3 hPa 0,0 l/m 0,0 km/h (0 Bft) N 9,5 C 12,5 C 2,5 km/h (1 Bft)
09.10.2023 03:00 12,4 C 81 % 1018,9 hPa 0,0 l/m 0,0 km/h (0 Bft) N 9,2 C 12,4 C 2,5 km/h (1 Bft)
09.10.2023 04:00 11,7 C 83 % 1018,6 hPa 0,0 l/m 0,0 km/h (0 Bft) O 8,9 C 11,7 C 0,0 km/h (0 Bft)
09.10.2023 05:00 11,9 C 82 % 1018,5 hPa 0,0 l/m 7,2 km/h (2 Bft) O-NO 8,9 C 11,4 C 11,2 km/h (2 Bft)
09.10.2023 06:00 10,0 C 90 % 1018,4 hPa 0,0 l/m 1,1 km/h (1 Bft) O-NO 8,4 C 10,0 C 2,5 km/h (1 Bft)
09.10.2023 07:00 9,8 C 91 % 1018,3 hPa 0,0 l/m 1,1 km/h (1 Bft) O-NO 8,4 C 9,8 C 2,5 km/h (1 Bft)
09.10.2023 08:00 10,2 C 89 % 1018,3 hPa 0,0 l/m 2,5 km/h (1 Bft) N 8,5 C 10,2 C 3,6 km/h (1 Bft)
09.10.2023 09:00 10,9 C 91 % 1018,8 hPa 0,0 l/m 0,0 km/h (0 Bft) O-NO 9,5 C 10,9 C 0,0 km/h (0 Bft)
09.10.2023 10:00 13,0 C 87 % 1019,2 hPa 0,0 l/m 1,1 km/h (1 Bft) N 10,9 C 13,0 C 2,5 km/h (1 Bft)
09.10.2023 11:00 16,1 C 80 % 1019,3 hPa 0,0 l/m 0,0 km/h (0 Bft) O 12,6 C 16,1 C 2,5 km/h (1 Bft)
09.10.2023 12:00 20,0 C 69 % 1019,3 hPa 0,0 l/m 3,6 km/h (1 Bft) O 14,1 C 20,0 C 7,2 km/h (2 Bft)
09.10.2023 13:00 23,3 C 54 % 1019,2 hPa 0,0 l/m 1,1 km/h (1 Bft) N-NW 13,5 C 23,3 C 2,5 km/h (1 Bft)
09.10.2023 14:00 24,3 C 54 % 1018,7 hPa 0,0 l/m 2,5 km/h (1 Bft) N 14,4 C 24,3 C 3,6 km/h (1 Bft)
09.10.2023 15:00 24,3 C 56 % 1018,1 hPa 0,0 l/m 0,0 km/h (0 Bft) N-NW 14,9 C 24,3 C 0,0 km/h (0 Bft)
09.10.2023 16:00 26,1 C 51 % 1017,5 hPa 0,0 l/m 1,1 km/h (1 Bft) NW 15,2 C 26,1 C 2,5 km/h (1 Bft)
09.10.2023 17:00 25,7 C 53 % 1017,2 hPa 0,0 l/m 2,5 km/h (1 Bft) N 15,4 C 25,7 C 6,1 km/h (2 Bft)
09.10.2023 18:00 24,0 C 68 % 1017,1 hPa 0,0 l/m 0,0 km/h (0 Bft) N 17,7 C 24,0 C 2,5 km/h (1 Bft)
09.10.2023 19:00 21,9 C 73 % 1017,2 hPa 0,0 l/m 1,1 km/h (1 Bft) N 16,8 C 21,9 C 2,5 km/h (1 Bft)
09.10.2023 20:00 19,0 C 80 % 1017,0 hPa 0,0 l/m 0,0 km/h (0 Bft) N 15,5 C 19,0 C 2,5 km/h (1 Bft)
09.10.2023 21:00 17,2 C 84 % 1017,4 hPa 0,0 l/m 0,0 km/h (0 Bft) NO 14,5 C 17,2 C 2,5 km/h (1 Bft)
09.10.2023 22:00 16,1 C 88 % 1017,7 hPa 0,0 l/m 1,1 km/h (1 Bft) S-SO 14,1 C 16,1 C 3,6 km/h (1 Bft)
09.10.2023 23:00 15,0 C 90 % 1017,5 hPa 0,0 l/m 2,5 km/h (1 Bft) N 13,4 C 15,0 C 6,1 km/h (2 Bft)
10.10.2023 00:00 14,0 C 91 % 1018,0 hPa 0,0 l/m 0,0 km/h (0 Bft) S-SO 12,6 C 14,0 C 0,0 km/h (0 Bft)
10.10.2023 01:00 13,6 C 90 % 1017,9 hPa 0,0 l/m 2,5 km/h (1 Bft) N 12,0 C 13,6 C 3,6 km/h (1 Bft)
10.10.2023 02:00 13,1 C 90 % 1018,2 hPa 0,0 l/m 0,0 km/h (0 Bft) S-SO 11,5 C 13,1 C 2,5 km/h (1 Bft)
10.10.2023 03:00 12,6 C 91 % 1018,1 hPa 0,0 l/m 1,1 km/h (1 Bft) S-SO 11,2 C 12,6 C 3,6 km/h (1 Bft)
10.10.2023 04:00 12,6 C 89 % 1005,1 hPa 0,0 l/m 2,5 km/h (1 Bft) N 10,8 C 12,6 C 3,6 km/h (1 Bft)
10.10.2023 05:00 11,9 C 91 % 1017,6 hPa 0,0 l/m 0,0 km/h (0 Bft) N 10,5 C 11,9 C 0,0 km/h (0 Bft)
10.10.2023 06:00 11,8 C 91 % 1017,5 hPa 0,0 l/m 0,0 km/h (0 Bft) SO 10,4 C 11,8 C 2,5 km/h (1 Bft)
10.10.2023 07:00 11,0 C 93 % 1017,6 hPa 0,0 l/m 1,1 km/h (1 Bft) N 9,9 C 11,0 C 2,5 km/h (1 Bft)
10.10.2023 08:00 11,2 C 93 % 1017,3 hPa 0,0 l/m 0,0 km/h (0 Bft) S-SO 10,1 C 11,2 C 0,0 km/h (0 Bft)
10.10.2023 09:00 11,9 C 91 % 1017,4 hPa 0,0 l/m 1,1 km/h (1 Bft) N 10,5 C 11,9 C 2,5 km/h (1 Bft)
10.10.2023 10:00 15,2 C 84 % 1017,5 hPa 0,0 l/m 0,0 km/h (0 Bft) N 12,5 C 15,2 C 0,0 km/h (0 Bft)
10.10.2023 11:00 17,5 C 79 % 1018,0 hPa 0,0 l/m 0,0 km/h (0 Bft) SO 13,8 C 17,5 C 0,0 km/h (0 Bft)
10.10.2023 12:00 20,9 C 69 % 1017,9 hPa 0,0 l/m 3,6 km/h (1 Bft) W-SW 15,0 C 20,9 C 6,1 km/h (2 Bft)
10.10.2023 13:00 23,5 C 60 % 1017,6 hPa 0,0 l/m 3,6 km/h (1 Bft) W-SW 15,3 C 23,5 C 6,1 km/h (2 Bft)
10.10.2023 14:00 24,6 C 56 % 1017,3 hPa 0,0 l/m 2,5 km/h (1 Bft) W-SW 15,2 C 24,6 C 3,6 km/h (1 Bft)
10.10.2023 15:00 25,0 C 54 % 1016,7 hPa 0,0 l/m 3,6 km/h (1 Bft) W-SW 15,0 C 25,0 C 6,1 km/h (2 Bft)
10.10.2023 16:00 26,2 C 47 % 1016,3 hPa 0,0 l/m 1,1 km/h (1 Bft) N 14,0 C 26,2 C 2,5 km/h (1 Bft)
10.10.2023 17:00 27,3 C 36 % 1015,9 hPa 0,0 l/m 0,0 km/h (0 Bft) W 10,9 C 27,3 C 0,0 km/h (0 Bft)
10.10.2023 18:00 27,5 C 37 % 1016,0 hPa 0,0 l/m 1,1 km/h (1 Bft) N 11,5 C 27,5 C 2,5 km/h (1 Bft)
10.10.2023 19:00 22,0 C 60 % 1016,1 hPa 0,0 l/m 0,0 km/h (0 Bft) N 13,9 C 22,0 C 0,0 km/h (0 Bft)
10.10.2023 20:00 19,0 C 69 % 1016,3 hPa 0,0 l/m 0,0 km/h (0 Bft) N 13,2 C 19,0 C 2,5 km/h (1 Bft)
10.10.2023 21:00 17,3 C 73 % 1003,8 hPa 0,0 l/m 0,0 km/h (0 Bft) N 12,4 C 17,3 C 2,5 km/h (1 Bft)
10.10.2023 22:00 16,3 C 77 % 1016,5 hPa 0,0 l/m 0,0 km/h (0 Bft) N 12,3 C 16,3 C 2,5 km/h (1 Bft)
10.10.2023 23:00 15,1 C 81 % 1016,3 hPa 0,0 l/m 0,0 km/h (0 Bft) N 11,9 C 15,1 C 0,0 km/h (0 Bft)
11.10.2023 00:00 14,1 C 83 % 1016,3 hPa 0,0 l/m 0,0 km/h (0 Bft) SO 11,3 C 14,1 C 2,5 km/h (1 Bft)
11.10.2023 01:00 13,5 C 85 % 1016,2 hPa 0,0 l/m 2,5 km/h (1 Bft) S-SO 11,0 C 13,5 C 3,6 km/h (1 Bft)
11.10.2023 02:00 12,5 C 87 % 1016,2 hPa 0,0 l/m 1,1 km/h (1 Bft) N 10,4 C 12,5 C 2,5 km/h (1 Bft)
11.10.2023 03:00 12,7 C 85 % 1015,9 hPa 0,0 l/m 0,0 km/h (0 Bft) SO 10,2 C 12,7 C 0,0 km/h (0 Bft)
11.10.2023 04:00 11,9 C 87 % 1015,5 hPa 0,0 l/m 1,1 km/h (1 Bft) N 9,8 C 11,9 C 2,5 km/h (1 Bft)
11.10.2023 05:00 10,8 C 90 % 1015,3 hPa 0,0 l/m 0,0 km/h (0 Bft) N 9,2 C 10,8 C 0,0 km/h (0 Bft)
11.10.2023 06:00 9,3 C 94 % 1015,4 hPa 0,0 l/m 0,0 km/h (0 Bft) N 8,4 C 9,3 C 0,0 km/h (0 Bft)
11.10.2023 07:00 10,3 C 89 % 1015,3 hPa 0,0 l/m 0,0 km/h (0 Bft) N 8,6 C 10,3 C 2,5 km/h (1 Bft)
11.10.2023 08:00 8,9 C 95 % 1015,7 hPa 0,0 l/m 0,0 km/h (0 Bft) N 8,1 C 8,9 C 0,0 km/h (0 Bft)
11.10.2023 09:00 9,5 C 94 % 1015,6 hPa 0,0 l/m 0,0 km/h (0 Bft) O 8,6 C 9,5 C 0,0 km/h (0 Bft)
11.10.2023 10:00 14,5 C 78 % 1015,7 hPa 0,0 l/m 1,1 km/h (1 Bft) SO 10,7 C 14,5 C 3,6 km/h (1 Bft)
11.10.2023 11:00 18,7 C 69 % 1015,9 hPa 0,0 l/m 3,6 km/h (1 Bft) SO 12,9 C 18,7 C 6,1 km/h (2 Bft)
11.10.2023 12:00 22,8 C 53 % 1015,9 hPa 0,0 l/m 1,1 km/h (1 Bft) W-SW 12,7 C 22,8 C 3,6 km/h (1 Bft)
11.10.2023 13:00 24,3 C 53 % 1015,5 hPa 0,0 l/m 2,5 km/h (1 Bft) W-SW 14,1 C 24,3 C 3,6 km/h (1 Bft)
11.10.2023 14:00 26,1 C 47 % 1015,0 hPa 0,0 l/m 9,7 km/h (2 Bft) W-SW 13,9 C 25,4 C 13,3 km/h (3 Bft)
11.10.2023 15:00 27,0 C 45 % 1014,3 hPa 0,0 l/m 6,1 km/h (2 Bft) W-SW 14,0 C 27,0 C 11,2 km/h (2 Bft)
11.10.2023 16:00 27,5 C 46 % 1013,8 hPa 0,0 l/m 7,2 km/h (2 Bft) W-SW 14,8 C 27,4 C 13,3 km/h (3 Bft)
11.10.2023 17:00 27,8 C 41 % 1013,2 hPa 0,0 l/m 6,1 km/h (2 Bft) W-SW 13,3 C 27,8 C 9,7 km/h (2 Bft)
11.10.2023 18:00 27,0 C 40 % 1012,7 hPa 0,0 l/m 6,1 km/h (2 Bft) S-SW 12,2 C 27,0 C 9,7 km/h (2 Bft)
11.10.2023 19:00 25,2 C 45 % 1013,0 hPa 0,0 l/m 5,0 km/h (1 Bft) SW 12,4 C 25,2 C 11,2 km/h (2 Bft)
11.10.2023 20:00 23,2 C 53 % 1013,3 hPa 0,0 l/m 2,5 km/h (1 Bft) S-SO 13,1 C 23,2 C 6,1 km/h (2 Bft)
11.10.2023 21:00 22,9 C 53 % 1013,2 hPa 0,0 l/m 9,7 km/h (2 Bft) S-SW 12,8 C 21,9 C 11,2 km/h (2 Bft)
11.10.2023 22:00 21,9 C 56 % 1013,6 hPa 0,0 l/m 6,1 km/h (2 Bft) N 12,7 C 21,9 C 7,2 km/h (2 Bft)
11.10.2023 23:00 18,9 C 66 % 1013,9 hPa 0,0 l/m 0,0 km/h (0 Bft) N-NO 12,4 C 18,9 C 2,5 km/h (1 Bft)
12.10.2023 00:00 15,5 C 79 % 1013,9 hPa 0,0 l/m 3,6 km/h (1 Bft) N-NO 11,9 C 15,5 C 6,1 km/h (2 Bft)
12.10.2023 01:00 15,5 C 79 % 1013,3 hPa 0,0 l/m 3,6 km/h (1 Bft) N-NO 11,9 C 15,5 C 6,1 km/h (2 Bft)
12.10.2023 02:00 14,1 C 85 % 1013,5 hPa 0,0 l/m 2,5 km/h (1 Bft) N-NO 11,6 C 14,1 C 3,6 km/h (1 Bft)
12.10.2023 03:00 13,5 C 86 % 1013,5 hPa 0,0 l/m 3,6 km/h (1 Bft) N-NO 11,2 C 13,5 C 6,1 km/h (2 Bft)
12.10.2023 04:00 13,0 C 89 % 1013,3 hPa 0,0 l/m 3,6 km/h (1 Bft) N-NO 11,2 C 13,0 C 6,1 km/h (2 Bft)
12.10.2023 05:00 13,2 C 89 % 1013,1 hPa 0,0 l/m 1,1 km/h (1 Bft) NO 11,4 C 13,2 C 2,5 km/h (1 Bft)
12.10.2023 06:00 13,1 C 89 % 1013,1 hPa 0,0 l/m 2,5 km/h (1 Bft) NO 11,3 C 13,1 C 3,6 km/h (1 Bft)
12.10.2023 07:00 13,3 C 86 % 1013,0 hPa 0,0 l/m 2,5 km/h (1 Bft) NO 11,0 C 13,3 C 6,1 km/h (2 Bft)
12.10.2023 08:00 13,0 C 85 % 1013,3 hPa 0,0 l/m 2,5 km/h (1 Bft) NO 10,5 C 13,0 C 6,1 km/h (2 Bft)
12.10.2023 09:00 14,9 C 77 % 1013,7 hPa 0,0 l/m 1,1 km/h (1 Bft) NO 10,9 C 14,9 C 2,5 km/h (1 Bft)
12.10.2023 10:00 17,6 C 70 % 1014,3 hPa 0,0 l/m 1,1 km/h (1 Bft) SW 12,1 C 17,6 C 3,6 km/h (1 Bft)
12.10.2023 11:00 23,3 C 51 % 1014,0 hPa 0,0 l/m 6,1 km/h (2 Bft) SW 12,6 C 23,3 C 7,2 km/h (2 Bft)
12.10.2023 12:00 24,2 C 48 % 1014,0 hPa 0,0 l/m 9,7 km/h (2 Bft) W-SW 12,5 C 23,3 C 17,3 km/h (3 Bft)
12.10.2023 13:00 24,9 C 47 % 1014,0 hPa 0,0 l/m 7,2 km/h (2 Bft) S 12,8 C 24,7 C 11,2 km/h (2 Bft)
12.10.2023 14:00 25,5 C 46 % 1013,6 hPa 0,0 l/m 12,2 km/h (2 Bft) SW 13,0 C 24,3 C 18,4 km/h (3 Bft)
12.10.2023 15:00 25,2 C 45 % 1000,5 hPa 0,0 l/m 11,2 km/h (2 Bft) W-SW 12,4 C 24,2 C 17,3 km/h (3 Bft)
12.10.2023 16:00 25,3 C 43 % 1012,8 hPa 0,0 l/m 7,2 km/h (2 Bft) W 11,8 C 25,1 C 11,2 km/h (2 Bft)
12.10.2023 17:00 25,4 C 40 % 1012,4 hPa 0,0 l/m 8,6 km/h (2 Bft) W-SW 10,8 C 24,9 C 13,3 km/h (3 Bft)
12.10.2023 18:00 24,9 C 42 % 1012,1 hPa 0,0 l/m 5,0 km/h (1 Bft) SW 11,1 C 24,9 C 7,2 km/h (2 Bft)
12.10.2023 19:00 23,7 C 42 % 1012,5 hPa 0,0 l/m 3,6 km/h (1 Bft) SW 10,0 C 23,7 C 7,2 km/h (2 Bft)
12.10.2023 20:00 23,1 C 42 % 1012,9 hPa 0,0 l/m 1,1 km/h (1 Bft) S-SW 9,5 C 23,1 C 3,6 km/h (1 Bft)
12.10.2023 21:00 23,5 C 40 % 1013,4 hPa 0,0 l/m 2,5 km/h (1 Bft) S-SW 9,1 C 23,5 C 3,6 km/h (1 Bft)
12.10.2023 22:00 23,3 C 42 % 1013,6 hPa 0,0 l/m 2,5 km/h (1 Bft) NO 9,7 C 23,3 C 3,6 km/h (1 Bft)
12.10.2023 23:00 18,9 C 66 % 1013,6 hPa 0,0 l/m 3,6 km/h (1 Bft) N-NO 12,4 C 18,9 C 6,1 km/h (2 Bft)
13.10.2023 00:00 18,9 C 62 % 1013,4 hPa 0,0 l/m 1,1 km/h (1 Bft) N-NO 11,5 C 18,9 C 3,6 km/h (1 Bft)
13.10.2023 01:00 20,0 C 61 % 1013,4 hPa 0,0 l/m 1,1 km/h (1 Bft) NO 12,2 C 20,0 C 3,6 km/h (1 Bft)
13.10.2023 02:00 18,5 C 66 % 1013,5 hPa 0,0 l/m 3,6 km/h (1 Bft) NO 12,0 C 18,5 C 6,1 km/h (2 Bft)
13.10.2023 03:00 17,8 C 70 % 1013,3 hPa 0,0 l/m 2,5 km/h (1 Bft) NO 12,3 C 17,8 C 3,6 km/h (1 Bft)
13.10.2023 04:00 17,4 C 71 % 1013,0 hPa 0,0 l/m 2,5 km/h (1 Bft) NO 12,1 C 17,4 C 2,5 km/h (1 Bft)
13.10.2023 05:00 15,3 C 78 % 1012,7 hPa 0,0 l/m 1,1 km/h (1 Bft) N 11,5 C 15,3 C 2,5 km/h (1 Bft)
13.10.2023 06:00 14,0 C 80 % 1011,9 hPa 0,0 l/m 0,0 km/h (0 Bft) N 10,6 C 14,0 C 2,5 km/h (1 Bft)
13.10.2023 07:00 13,5 C 79 % 1011,6 hPa 0,0 l/m 0,0 km/h (0 Bft) SO 9,9 C 13,5 C 0,0 km/h (0 Bft)
13.10.2023 08:00 12,5 C 84 % 1011,2 hPa 0,0 l/m 1,1 km/h (1 Bft) N 9,9 C 12,5 C 2,5 km/h (1 Bft)
13.10.2023 09:00 12,9 C 81 % 1011,3 hPa 0,0 l/m 0,0 km/h (0 Bft) O-SO 9,7 C 12,9 C 0,0 km/h (0 Bft)
13.10.2023 10:00 17,3 C 71 % 1011,5 hPa 0,0 l/m 3,6 km/h (1 Bft) N 12,0 C 17,3 C 3,6 km/h (1 Bft)
13.10.2023 11:00 21,7 C 55 % 1011,3 hPa 0,0 l/m 0,0 km/h (0 Bft) O-SO 12,3 C 21,7 C 0,0 km/h (0 Bft)
13.10.2023 12:00 22,1 C 59 % 1011,1 hPa 0,0 l/m 1,1 km/h (1 Bft) SW 13,7 C 22,1 C 3,6 km/h (1 Bft)
13.10.2023 13:00 26,1 C 39 % 1010,5 hPa 0,0 l/m 6,1 km/h (2 Bft) W-SW 11,0 C 26,1 C 9,7 km/h (2 Bft)
13.10.2023 14:00 28,0 C 34 % 1009,8 hPa 0,0 l/m 12,2 km/h (2 Bft) W 10,7 C 27,2 C 18,4 km/h (3 Bft)
13.10.2023 15:00 28,8 C 34 % 1008,9 hPa 0,0 l/m 9,7 km/h (2 Bft) W-NW 11,4 C 28,4 C 14,8 km/h (3 Bft)
13.10.2023 16:00 28,8 C 33 % 1008,0 hPa 0,0 l/m 8,6 km/h (2 Bft) W-NW 10,9 C 28,5 C 13,3 km/h (3 Bft)
13.10.2023 17:00 28,7 C 32 % 1007,2 hPa 0,0 l/m 9,7 km/h (2 Bft) W-SW 10,4 C 28,3 C 13,3 km/h (3 Bft)
13.10.2023 18:00 28,3 C 34 % 1006,6 hPa 0,0 l/m 5,0 km/h (1 Bft) W 10,9 C 28,3 C 7,2 km/h (2 Bft)
13.10.2023 19:00 24,7 C 43 % 1006,3 hPa 0,0 l/m 1,1 km/h (1 Bft) SO 11,3 C 24,7 C 2,5 km/h (1 Bft)
13.10.2023 20:00 20,6 C 54 % 1006,5 hPa 0,0 l/m 1,1 km/h (1 Bft) S-SO 11,0 C 20,6 C 2,5 km/h (1 Bft)
13.10.2023 21:00 23,0 C 40 % 1006,4 hPa 0,0 l/m 3,6 km/h (1 Bft) SW 8,7 C 23,0 C 6,1 km/h (2 Bft)
13.10.2023 22:00 19,3 C 49 % 1006,8 hPa 0,0 l/m 1,1 km/h (1 Bft) W 8,3 C 19,3 C 2,5 km/h (1 Bft)
13.10.2023 23:00 21,8 C 42 % 1006,6 hPa 0,0 l/m 2,5 km/h (1 Bft) N 8,3 C 21,8 C 3,6 km/h (1 Bft)
14.10.2023 00:00 19,3 C 52 % 1007,1 hPa 0,0 l/m 0,0 km/h (0 Bft) S 9,2 C 19,3 C 0,0 km/h (0 Bft)
14.10.2023 01:00 22,1 C 44 % 1007,3 hPa 0,0 l/m 3,6 km/h (1 Bft) SW 9,3 C 22,1 C 7,2 km/h (2 Bft)
14.10.2023 02:00 22,7 C 49 % 1007,3 hPa 0,0 l/m 8,6 km/h (2 Bft) SW 11,4 C 22,0 C 13,3 km/h (3 Bft)
14.10.2023 03:00 20,7 C 63 % 1007,7 hPa 0,0 l/m 8,6 km/h (2 Bft) W-SW 13,4 C 19,9 C 13,3 km/h (3 Bft)
14.10.2023 04:00 20,9 C 65 % 1006,9 hPa 0,0 l/m 13,3 km/h (3 Bft) W 14,1 C 18,7 C 18,4 km/h (3 Bft)
14.10.2023 05:00 20,5 C 70 % 1006,7 hPa 0,0 l/m 9,7 km/h (2 Bft) W-SW 14,8 C 19,3 C 13,3 km/h (3 Bft)
14.10.2023 06:00 20,0 C 74 % 1006,8 hPa 0,0 l/m 13,3 km/h (3 Bft) S 15,2 C 17,7 C 18,4 km/h (3 Bft)
14.10.2023 07:00 19,6 C 76 % 1007,3 hPa 0,0 l/m 13,3 km/h (3 Bft) W-SW 15,2 C 17,2 C 24,5 km/h (4 Bft)
14.10.2023 08:00 19,4 C 74 % 1007,3 hPa 0,0 l/m 14,8 km/h (3 Bft) SW 14,6 C 16,6 C 20,9 km/h (4 Bft)
14.10.2023 09:00 19,2 C 75 % 1007,9 hPa 0,0 l/m 9,7 km/h (2 Bft) W-SW 14,7 C 17,9 C 14,8 km/h (3 Bft)
14.10.2023 10:00 19,2 C 77 % 1008,3 hPa 0,0 l/m 9,7 km/h (2 Bft) S-SW 15,1 C 17,9 C 14,8 km/h (3 Bft)
14.10.2023 11:00 18,9 C 77 % 1008,8 hPa 0,0 l/m 8,6 km/h (2 Bft) W 14,8 C 18,0 C 22,0 km/h (4 Bft)
14.10.2023 12:00 16,4 C 94 % 1009,1 hPa 0,6 l/m 8,6 km/h (2 Bft) W-SW 15,4 C 15,3 C 13,3 km/h (3 Bft)
14.10.2023 13:00 17,4 C 90 % 1008,7 hPa 0,9 l/m 8,6 km/h (2 Bft) NW 15,7 C 16,4 C 13,3 km/h (3 Bft)
14.10.2023 14:00 13,6 C 94 % 1010,0 hPa 1,8 l/m 3,6 km/h (1 Bft) N-NW 12,7 C 13,6 C 6,1 km/h (2 Bft)
14.10.2023 15:00 13,0 C 96 % 1011,2 hPa 2,1 l/m 2,5 km/h (1 Bft) W 12,4 C 13,0 C 3,6 km/h (1 Bft)
14.10.2023 16:00 12,3 C 93 % 1012,0 hPa 0,9 l/m 1,1 km/h (1 Bft) W 11,2 C 12,3 C 2,5 km/h (1 Bft)
14.10.2023 17:00 13,1 C 88 % 1012,2 hPa 0,0 l/m 2,5 km/h (1 Bft) SW 11,2 C 13,1 C 3,6 km/h (1 Bft)
14.10.2023 18:00 12,9 C 87 % 1013,2 hPa 0,0 l/m 2,5 km/h (1 Bft) W-NW 10,8 C 12,9 C 6,1 km/h (2 Bft)
14.10.2023 19:00 12,8 C 79 % 1014,1 hPa 0,0 l/m 5,0 km/h (1 Bft) N 9,2 C 12,8 C 11,2 km/h (2 Bft)
14.10.2023 20:00 11,4 C 88 % 1014,8 hPa 0,0 l/m 0,0 km/h (0 Bft) N-NW 9,5 C 11,4 C 0,0 km/h (0 Bft)
14.10.2023 21:00 9,8 C 95 % 1015,3 hPa 0,0 l/m 1,1 km/h (1 Bft) N-NO 9,0 C 9,8 C 3,6 km/h (1 Bft)
14.10.2023 22:00 8,9 C 95 % 1015,7 hPa 0,0 l/m 1,1 km/h (1 Bft) N 8,1 C 8,9 C 2,5 km/h (1 Bft)
14.10.2023 23:00 8,2 C 96 % 1016,1 hPa 0,0 l/m 0,0 km/h (0 Bft) N 7,6 C 8,2 C 0,0 km/h (0 Bft)
15.10.2023 00:00 7,2 C 97 % 1016,1 hPa 0,0 l/m 0,0 km/h (0 Bft) N 6,8 C 7,2 C 0,0 km/h (0 Bft)
15.10.2023 01:00 7,3 C 98 % 1015,6 hPa 0,0 l/m 0,0 km/h (0 Bft) NO 7,0 C 7,3 C 0,0 km/h (0 Bft)
15.10.2023 02:00 7,8 C 98 % 1015,4 hPa 0,0 l/m 1,1 km/h (1 Bft) N 7,5 C 7,8 C 2,5 km/h (1 Bft)
15.10.2023 03:00 8,1 C 97 % 1015,3 hPa 0,0 l/m 0,0 km/h (0 Bft) N 7,7 C 8,1 C 0,0 km/h (0 Bft)
15.10.2023 04:00 8,3 C 96 % 1015,1 hPa 0,0 l/m 0,0 km/h (0 Bft) O-SO 7,7 C 8,3 C 0,0 km/h (0 Bft)
15.10.2023 05:00 8,4 C 97 % 1015,1 hPa 0,0 l/m 1,1 km/h (1 Bft) N 8,0 C 8,4 C 2,5 km/h (1 Bft)
15.10.2023 06:00 8,6 C 97 % 1015,0 hPa 0,0 l/m 0,0 km/h (0 Bft) N 8,2 C 8,6 C 0,0 km/h (0 Bft)
15.10.2023 07:00 8,6 C 97 % 1015,2 hPa 0,0 l/m 0,0 km/h (0 Bft) N 8,2 C 8,6 C 2,5 km/h (1 Bft)
15.10.2023 08:00 8,7 C 98 % 1015,5 hPa 0,0 l/m 0,0 km/h (0 Bft) N 8,4 C 8,7 C 0,0 km/h (0 Bft)
15.10.2023 09:00 8,9 C 97 % 1016,0 hPa 0,3 l/m 0,0 km/h (0 Bft) N 8,4 C 8,9 C 0,0 km/h (0 Bft)
15.10.2023 10:00 9,0 C 97 % 1016,5 hPa 0,0 l/m 0,0 km/h (0 Bft) N 8,5 C 9,0 C 2,5 km/h (1 Bft)
15.10.2023 11:00 12,3 C 83 % 1016,9 hPa 0,0 l/m 0,0 km/h (0 Bft) N 9,5 C 12,3 C 2,5 km/h (1 Bft)
15.10.2023 12:00 12,3 C 77 % 1017,2 hPa 0,0 l/m 0,0 km/h (0 Bft) W-SW 8,4 C 12,3 C 2,5 km/h (1 Bft)
15.10.2023 13:00 12,2 C 76 % 1016,9 hPa 0,0 l/m 3,6 km/h (1 Bft) W 8,1 C 12,2 C 6,1 km/h (2 Bft)
15.10.2023 14:00 15,2 C 55 % 1003,9 hPa 0,0 l/m 6,1 km/h (2 Bft) W 6,2 C 15,2 C 9,7 km/h (2 Bft)
15.10.2023 15:00 15,2 C 53 % 1016,6 hPa 0,0 l/m 6,1 km/h (2 Bft) W-NW 5,7 C 15,2 C 9,7 km/h (2 Bft)
15.10.2023 16:00 14,5 C 53 % 1016,8 hPa 0,0 l/m 3,6 km/h (1 Bft) N 5,0 C 14,5 C 6,1 km/h (2 Bft)
15.10.2023 17:00 14,6 C 50 % 1017,1 hPa 0,0 l/m 2,5 km/h (1 Bft) N-NO 4,3 C 14,6 C 3,6 km/h (1 Bft)
15.10.2023 18:00 12,9 C 53 % 1017,4 hPa 0,0 l/m 3,6 km/h (1 Bft) N 3,6 C 12,9 C 6,1 km/h (2 Bft)
15.10.2023 19:00 11,4 C 57 % 1017,8 hPa 0,0 l/m 0,0 km/h (0 Bft) N 3,2 C 11,4 C 2,5 km/h (1 Bft)
15.10.2023 20:00 7,6 C 80 % 1018,6 hPa 0,0 l/m 0,0 km/h (0 Bft) O-NO 4,4 C 7,6 C 0,0 km/h (0 Bft)
15.10.2023 21:00 6,6 C 84 % 1019,0 hPa 0,0 l/m 1,1 km/h (1 Bft) NO 4,1 C 6,6 C 3,6 km/h (1 Bft)
15.10.2023 22:00 5,7 C 89 % 1019,1 hPa 0,0 l/m 1,1 km/h (1 Bft) O-SO 4,0 C 5,7 C 2,5 km/h (1 Bft)
15.10.2023 23:00 4,8 C 92 % 1019,3 hPa 0,0 l/m 1,1 km/h (1 Bft) N 3,6 C 4,8 C 3,6 km/h (1 Bft)
Min-Datum _ 15.10.23 13.10.23 12.10.23 - 09.10.23 - 15.10.23 15.10.23 09.10.23
_ Min-Zeit 23:21 17:21 15:21 - 00:21 - 19:21 23:21 01:21
Minimum _ 4,8 C 32 % 1000,5 hPa - 0,0 km/h (0 Bft) - 3,2 C 4,8 C 0,0 km/h (0 Bft)
Max-Datum _ 13.10.23 15.10.23 09.10.23 14.10.23 14.10.23 - 09.10.23 13.10.23 14.10.23
_ Max-Zeit 15:21 01:21 00:21 15:21 08:21 - 18:21 16:21 07:21
Maximum _ 28,8 C 98 % 1020,1 hPa 2,1 l/m 14,8 km/h
SW (3 Bft)
- 17,7 C 28,5 C 24,5 km/h
W-SW (4 Bft)
Durchschnitt _ 17,0 C 71 % 1014,1 hPa #6,6 l/m 2,9 km/h (1 Bft) W-SW 11,0 C 16,9 C 5,2 km/h (1 Bft)
www.sexauwetter.de